Time;durP1;ratioP1;P1;durP2;ratioP2;P2;SDS_P1;SDS_P2;PMS_P1;PMS_P2;Temp;Humidity;BMP_temperature;BMP_pressure;BME280_temperature;BME280_humidity;BME280_pressure;Samples;Min_cycle;Max_cycle;Signal;HPM_P1;HPM_P2
2023/04/07 00:00:36;;;;;;;9.53;5.23;;;12.30;99.90;;;;;;5048342;28;20901;-31
2023/04/07 00:03:08;;;;;;;8.43;5.10;;;12.30;99.90;;;;;;5049125;28;20679;-31
2023/04/07 00:05:36;;;;;;;8.83;5.40;;;12.30;99.90;;;;;;5049552;28;20200;-32
2023/04/07 00:08:03;;;;;;;9.43;5.77;;;12.30;99.90;;;;;;5031613;28;20554;-32
2023/04/07 00:10:32;;;;;;;11.53;6.30;;;12.30;99.90;;;;;;5047871;28;20255;-32
2023/04/07 00:12:59;;;;;;;10.80;6.30;;;12.30;99.90;;;;;;5031363;28;20296;-33
2023/04/07 00:15:34;;;;;;;11.63;5.63;;;12.20;99.90;;;;;;5049151;28;20216;-32
2023/04/07 00:18:03;;;;;;;11.40;5.50;;;12.20;99.90;;;;;;5047915;28;20228;-32
2023/04/07 00:20:32;;;;;;;11.80;6.43;;;12.20;99.90;;;;;;5049321;28;20192;-33
2023/04/07 00:22:59;;;;;;;11.03;7.00;;;12.20;99.90;;;;;;5047809;28;20197;-33
2023/04/07 00:25:29;;;;;;;12.03;6.70;;;12.20;99.90;;;;;;5047761;28;20292;-33
2023/04/07 00:27:56;;;;;;;12.70;6.53;;;12.20;99.90;;;;;;5047603;28;20230;-33
2023/04/07 00:30:23;;;;;;;12.77;6.57;;;12.20;99.90;;;;;;5047586;28;20226;-33
2023/04/07 00:32:51;;;;;;;11.20;6.73;;;12.20;99.90;;;;;;5047406;28;20492;-33
2023/04/07 00:35:18;;;;;;;8.70;6.13;;;12.20;99.90;;;;;;5047341;28;20239;-33
2023/04/07 00:37:47;;;;;;;13.80;6.83;;;12.20;99.90;;;;;;5047619;28;20683;-33
2023/04/07 00:40:18;;;;;;;10.93;6.60;;;12.20;99.90;;;;;;5047544;28;20441;-33
2023/04/07 00:42:46;;;;;;;10.97;6.83;;;12.20;99.90;;;;;;5047118;28;20217;-33
2023/04/07 00:45:18;;;;;;;10.73;6.73;;;12.10;99.90;;;;;;5049250;28;20215;-33
2023/04/07 00:47:45;;;;;;;11.40;7.00;;;12.10;99.90;;;;;;5048662;28;20315;-33
2023/04/07 00:50:15;;;;;;;9.07;6.60;;;12.10;99.90;;;;;;5047194;28;20303;-33
2023/04/07 00:52:45;;;;;;;11.50;7.27;;;12.20;99.90;;;;;;5048245;28;20254;-33
2023/04/07 00:55:14;;;;;;;11.43;6.83;;;12.20;99.90;;;;;;5046972;28;20248;-33
2023/04/07 00:57:45;;;;;;;9.17;7.03;;;12.20;99.90;;;;;;5046952;28;20237;-33
2023/04/07 01:00:15;;;;;;;10.10;7.00;;;12.20;99.90;;;;;;5048606;28;20276;-33
2023/04/07 01:02:54;;;;;;;12.67;7.47;;;12.20;99.90;;;;;;5044915;28;20578;-33
2023/04/07 01:05:44;;;;;;;11.18;6.78;;;12.20;99.90;;;;;;5033749;28;20549;-33
2023/04/07 01:08:23;;;;;;;11.70;7.10;;;12.20;99.90;;;;;;5042561;28;20209;-33
2023/04/07 01:10:56;;;;;;;13.17;7.80;;;12.20;99.90;;;;;;5039532;28;20319;-32
2023/04/07 01:13:37;;;;;;;10.73;7.83;;;12.20;99.90;;;;;;5032476;28;20696;-33
2023/04/07 01:16:11;;;;;;;10.07;7.40;;;12.30;99.90;;;;;;5047736;28;20197;-33
2023/04/07 01:18:43;;;;;;;11.93;8.60;;;12.20;99.90;;;;;;5035670;28;20729;-33
2023/04/07 01:21:14;;;;;;;11.67;8.57;;;12.20;99.90;;;;;;5046491;28;20277;-33
2023/04/07 01:24:00;;;;;;;13.80;9.20;;;12.20;99.90;;;;;;5047790;28;20212;-32
2023/04/07 01:26:32;;;;;;;13.73;9.27;;;12.20;99.90;;;;;;5047758;28;20224;-33
2023/04/07 01:29:10;;;;;;;12.93;8.87;;;12.20;99.90;;;;;;5046668;28;20207;-33
2023/04/07 01:31:40;;;;;;;13.53;9.13;;;12.20;99.90;;;;;;5046774;28;20215;-32
2023/04/07 01:34:12;;;;;;;13.57;9.60;;;12.10;99.90;;;;;;5046939;28;20312;-33
2023/04/07 01:36:40;;;;;;;13.97;9.47;;;12.10;99.90;;;;;;5046597;28;20201;-32
2023/04/07 01:39:11;;;;;;;18.87;10.50;;;12.10;99.90;;;;;;5029846;28;20204;-33
2023/04/07 01:41:39;;;;;;;13.93;10.20;;;12.10;99.90;;;;;;5047795;28;20197;-33
2023/04/07 01:44:12;;;;;;;16.33;10.37;;;12.10;99.90;;;;;;5046532;28;20201;-33
2023/04/07 01:46:44;;;;;;;17.93;10.90;;;12.10;99.90;;;;;;5047702;28;20208;-33
2023/04/07 01:49:14;;;;;;;14.37;10.00;;;12.10;99.90;;;;;;5046148;28;20224;-33
2023/04/07 01:51:49;;;;;;;16.03;10.30;;;12.10;99.90;;;;;;5045769;28;20291;-32
2023/04/07 01:54:17;;;;;;;18.20;11.63;;;12.00;99.90;;;;;;5047510;28;20263;-33
2023/04/07 01:56:46;;;;;;;15.93;10.80;;;12.00;99.90;;;;;;5029321;28;20661;-33
2023/04/07 01:59:18;;;;;;;16.07;10.47;;;12.00;99.90;;;;;;5047601;28;20257;-32
2023/04/07 02:01:46;;;;;;;18.17;10.43;;;12.00;99.90;;;;;;5047163;28;20329;-32
2023/04/07 02:04:37;;;;;;;14.00;10.13;;;12.00;99.90;;;;;;5047248;28;20278;-32
2023/04/07 02:07:18;;;;;;;14.63;9.77;;;12.00;99.90;;;;;;5045553;28;20192;-33
2023/04/07 02:09:49;;;;;;;17.00;10.83;;;11.90;99.90;;;;;;5045636;28;20212;-33
2023/04/07 02:12:17;;;;;;;16.27;9.47;;;11.90;99.90;;;;;;5045963;28;20254;-33
2023/04/07 02:14:46;;;;;;;14.63;9.60;;;11.90;99.90;;;;;;5029168;28;20290;-33
2023/04/07 02:17:15;;;;;;;16.80;10.10;;;11.80;99.90;;;;;;5047032;28;20686;-33
2023/04/07 02:19:48;;;;;;;17.63;10.70;;;11.80;99.90;;;;;;5028818;28;20204;-32
2023/04/07 02:22:18;;;;;;;17.10;10.90;;;11.80;99.90;;;;;;5046654;28;20196;-33
2023/04/07 02:24:46;;;;;;;15.77;9.80;;;11.70;99.90;;;;;;5044868;28;20607;-33
2023/04/07 02:27:16;;;;;;;17.23;10.43;;;11.60;99.90;;;;;;5044821;28;20618;-33
2023/04/07 02:29:43;;;;;;;14.27;9.93;;;11.60;99.90;;;;;;5046199;28;20231;-33
2023/04/07 02:32:16;;;;;;;16.60;10.47;;;11.60;99.90;;;;;;5046356;28;20236;-33
2023/04/07 02:34:45;;;;;;;14.33;10.30;;;11.60;99.90;;;;;;5044580;28;20228;-33
2023/04/07 02:37:14;;;;;;;17.17;10.50;;;11.50;99.90;;;;;;5028241;28;20192;-32
2023/04/07 02:39:41;;;;;;;17.93;10.17;;;11.50;99.90;;;;;;5046129;28;20717;-32
2023/04/07 02:42:11;;;;;;;16.33;10.33;;;11.50;99.90;;;;;;5044506;28;20299;-32
2023/04/07 02:44:38;;;;;;;17.53;10.37;;;11.50;99.90;;;;;;5046132;28;20204;-33
2023/04/07 02:47:10;;;;;;;16.37;9.90;;;11.40;99.90;;;;;;5044475;28;20322;-33
2023/04/07 02:49:42;;;;;;;17.80;10.97;;;11.40;99.90;;;;;;5044480;28;20216;-33
2023/04/07 02:52:09;;;;;;;16.47;10.03;;;11.40;99.90;;;;;;5046067;28;20200;-32
2023/04/07 02:54:36;;;;;;;16.97;10.47;;;11.30;99.90;;;;;;5044616;28;20732;-32
2023/04/07 02:57:03;;;;;;;17.37;10.07;;;11.30;99.90;;;;;;5045167;28;20235;-33
2023/04/07 02:59:33;;;;;;;14.70;9.93;;;11.30;99.90;;;;;;5045099;28;20646;-33
2023/04/07 03:02:00;;;;;;;16.63;10.40;;;11.20;99.90;;;;;;5046177;28;20207;-32
2023/04/07 03:04:30;;;;;;;15.20;10.33;;;11.20;99.90;;;;;;5045913;28;20216;-33
2023/04/07 03:07:00;;;;;;;15.07;9.60;;;11.10;99.90;;;;;;5044696;28;20625;-32
2023/04/07 03:09:27;;;;;;;16.30;9.73;;;11.10;99.90;;;;;;5046291;28;20247;-33
2023/04/07 03:11:57;;;;;;;16.13;9.90;;;11.10;99.90;;;;;;5044724;28;20204;-32
2023/04/07 03:14:26;;;;;;;13.93;9.17;;;11.00;99.90;;;;;;5046339;28;20256;-32
2023/04/07 03:16:55;;;;;;;14.73;10.40;;;11.00;99.90;;;;;;5044939;28;20211;-33
2023/04/07 03:19:27;;;;;;;15.13;10.00;;;11.10;99.90;;;;;;5044664;28;20288;-32
2023/04/07 03:21:55;;;;;;;15.33;10.57;;;11.00;99.90;;;;;;5044785;28;20291;-33
2023/04/07 03:24:24;;;;;;;14.67;9.90;;;11.00;99.90;;;;;;5044428;28;20303;-32
2023/04/07 03:26:54;;;;;;;17.30;10.37;;;10.90;99.90;;;;;;5028394;28;20196;-32
2023/04/07 03:29:26;;;;;;;14.57;9.50;;;11.00;99.90;;;;;;5045839;28;20201;-32
2023/04/07 03:31:55;;;;;;;14.63;9.87;;;10.90;99.90;;;;;;5047762;28;20227;-32
2023/04/07 03:34:23;;;;;;;15.50;9.83;;;11.00;99.90;;;;;;5048043;28;20309;-32
2023/04/07 03:36:54;;;;;;;18.77;10.87;;;11.00;99.90;;;;;;5048208;28;20570;-32
2023/04/07 03:39:22;;;;;;;16.97;10.50;;;11.00;99.90;;;;;;5050207;28;20286;-32
2023/04/07 03:41:50;;;;;;;14.37;10.53;;;11.00;99.90;;;;;;5031785;28;20216;-32
2023/04/07 03:44:17;;;;;;;14.83;10.63;;;11.00;99.90;;;;;;5049674;28;20200;-33
2023/04/07 03:46:49;;;;;;;15.47;10.40;;;11.00;99.90;;;;;;5048511;28;20208;-32
2023/04/07 03:49:19;;;;;;;15.27;10.47;;;10.90;99.90;;;;;;5049616;28;20679;-32
2023/04/07 03:51:48;;;;;;;15.57;10.33;;;10.90;99.90;;;;;;5049557;28;20295;-33
2023/04/07 03:54:18;;;;;;;16.97;11.00;;;11.00;99.90;;;;;;5047730;28;20224;-33
2023/04/07 03:56:47;;;;;;;14.67;10.03;;;11.00;99.90;;;;;;5031736;28;20236;-33
2023/04/07 03:59:17;;;;;;;14.53;9.77;;;11.00;99.90;;;;;;5048182;28;20694;-34
2023/04/07 04:01:46;;;;;;;15.00;10.20;;;11.00;99.90;;;;;;5048174;28;20308;-33
2023/04/07 04:04:13;;;;;;;18.97;11.00;;;11.00;99.90;;;;;;5049553;28;20200;-32
2023/04/07 04:06:43;;;;;;;14.87;9.93;;;11.00;99.90;;;;;;5049347;28;20203;-33
2023/04/07 04:09:10;;;;;;;14.33;10.50;;;11.00;99.90;;;;;;5048108;28;20258;-32
2023/04/07 04:11:37;;;;;;;16.47;10.53;;;11.00;99.90;;;;;;5048080;28;20192;-33
2023/04/07 04:14:05;;;;;;;14.57;10.17;;;11.00;99.90;;;;;;5048108;28;20279;-33
2023/04/07 04:16:34;;;;;;;14.07;10.60;;;11.00;99.90;;;;;;5049889;28;20222;-32
2023/04/07 04:19:06;;;;;;;16.30;10.60;;;11.00;99.90;;;;;;5047883;28;20283;-32
2023/04/07 04:21:34;;;;;;;15.97;11.40;;;11.10;99.90;;;;;;5047977;28;20243;-32
2023/04/07 04:24:03;;;;;;;15.53;10.83;;;11.00;99.90;;;;;;5031320;28;20204;-32
2023/04/07 04:26:30;;;;;;;18.40;11.63;;;11.00;99.90;;;;;;5047628;28;20212;-32
2023/04/07 04:29:02;;;;;;;16.07;11.43;;;11.00;99.90;;;;;;5047581;28;20258;-32
2023/04/07 04:31:32;;;;;;;18.90;10.70;;;11.00;99.90;;;;;;5049213;28;20286;-32
2023/04/07 04:34:04;;;;;;;22.13;12.73;;;11.00;99.90;;;;;;5047347;28;20200;-32
2023/04/07 04:36:31;;;;;;;17.07;11.87;;;11.00;99.90;;;;;;5048843;28;20243;-32
2023/04/07 04:38:58;;;;;;;16.20;11.77;;;11.00;99.90;;;;;;5046932;28;20192;-32
2023/04/07 04:41:28;;;;;;;17.37;11.93;;;11.00;99.90;;;;;;5047369;28;20237;-32
2023/04/07 04:43:55;;;;;;;20.00;13.07;;;11.00;99.90;;;;;;5047744;28;20243;-32
2023/04/07 04:46:24;;;;;;;15.30;11.53;;;11.00;99.90;;;;;;5048393;28;20324;-32
2023/04/07 04:48:54;;;;;;;15.43;11.40;;;11.00;99.90;;;;;;5047150;28;20205;-32
2023/04/07 04:51:23;;;;;;;16.87;11.80;;;11.00;99.90;;;;;;5048903;28;20211;-32
2023/04/07 04:53:55;;;;;;;18.13;12.60;;;11.00;99.90;;;;;;5048533;28;20465;-32
2023/04/07 04:56:23;;;;;;;22.13;13.83;;;11.00;99.90;;;;;;5046830;28;20313;-32
2023/04/07 04:58:52;;;;;;;20.67;13.23;;;11.00;99.90;;;;;;5048600;28;20291;-32
2023/04/07 05:01:19;;;;;;;16.60;12.60;;;11.00;99.90;;;;;;5046920;28;20683;-32
2023/04/07 05:03:49;;;;;;;19.20;12.97;;;11.00;99.90;;;;;;5048269;28;20216;-32
2023/04/07 05:06:16;;;;;;;17.93;13.17;;;11.00;99.90;;;;;;5047371;28;20231;-32
2023/04/07 05:08:44;;;;;;;20.47;13.47;;;11.00;99.90;;;;;;5048459;28;20291;-32
2023/04/07 05:11:17;;;;;;;21.00;13.47;;;11.00;99.90;;;;;;5046939;28;20311;-32
2023/04/07 05:13:47;;;;;;;18.70;13.63;;;11.00;99.90;;;;;;5046880;28;20220;-32
2023/04/07 05:16:14;;;;;;;19.77;13.77;;;11.00;99.90;;;;;;5046275;28;20319;-32
2023/04/07 05:18:43;;;;;;;19.17;14.63;;;11.00;99.90;;;;;;5047994;28;20286;-32
2023/04/07 05:21:11;;;;;;;24.67;15.23;;;11.00;99.90;;;;;;5048298;28;20200;-32
2023/04/07 05:23:40;;;;;;;21.70;14.40;;;10.90;99.90;;;;;;5047719;28;20732;-33
2023/04/07 05:26:07;;;;;;;22.77;14.60;;;10.90;99.90;;;;;;5046298;28;20303;-35
2023/04/07 05:28:35;;;;;;;23.53;15.00;;;10.90;99.90;;;;;;5047843;28;20218;-35
2023/04/07 05:31:04;;;;;;;23.83;15.47;;;10.80;99.90;;;;;;5046224;28;20753;-35
2023/04/07 05:33:34;;;;;;;19.87;14.30;;;10.80;99.90;;;;;;5046507;28;20556;-35
2023/04/07 05:36:06;;;;;;;24.97;14.93;;;10.80;99.90;;;;;;5046188;28;20298;-35
2023/04/07 05:38:35;;;;;;;24.30;14.80;;;10.80;99.90;;;;;;5046224;28;20208;-35
2023/04/07 05:41:02;;;;;;;21.10;14.73;;;10.80;99.90;;;;;;5047472;28;20232;-34
2023/04/07 05:43:29;;;;;;;22.53;15.13;;;10.80;99.90;;;;;;5029839;28;20228;-35
2023/04/07 05:45:57;;;;;;;23.50;15.70;;;10.70;99.90;;;;;;5045917;28;20715;-35
2023/04/07 05:48:24;;;;;;;19.90;15.23;;;10.80;99.90;;;;;;5046155;28;20835;-34
2023/04/07 05:50:51;;;;;;;22.07;14.63;;;10.80;99.90;;;;;;5047279;28;20303;-34
2023/04/07 05:53:21;;;;;;;20.40;14.23;;;10.80;99.90;;;;;;5029729;28;20585;-35
2023/04/07 05:55:48;;;;;;;16.13;12.80;;;10.80;99.90;;;;;;5047066;28;20289;-35
2023/04/07 05:58:15;;;;;;;19.53;13.93;;;10.80;99.90;;;;;;5029452;28;20200;-35
2023/04/07 06:00:45;;;;;;;17.87;13.43;;;10.80;99.90;;;;;;5047065;28;20224;-35
2023/04/07 06:03:12;;;;;;;20.13;14.03;;;10.80;99.90;;;;;;5046822;28;20765;-34
2023/04/07 06:05:45;;;;;;;20.60;14.13;;;10.80;99.90;;;;;;5045731;28;20200;-34
2023/04/07 06:08:19;;;;;;;20.23;13.30;;;10.80;99.90;;;;;;5047557;28;20204;-33
2023/04/07 06:10:47;;;;;;;18.43;13.33;;;10.80;99.90;;;;;;5045621;28;20680;-36
2023/04/07 06:13:19;;;;;;;20.50;14.30;;;10.80;99.90;;;;;;5029625;28;20207;-32
2023/04/07 06:15:51;;;;;;;20.00;13.60;;;10.80;99.90;;;;;;5047059;28;20240;-32
2023/04/07 06:18:20;;;;;;;21.17;13.27;;;10.80;99.90;;;;;;5047187;28;20271;-32
2023/04/07 06:20:47;;;;;;;20.90;13.37;;;10.90;99.90;;;;;;5046810;28;20211;-33
2023/04/07 06:23:17;;;;;;;18.43;13.47;;;10.90;99.90;;;;;;5046817;28;20721;-32
2023/04/07 06:25:50;;;;;;;22.17;15.00;;;11.00;99.90;;;;;;5046931;28;20258;-33
2023/04/07 06:28:18;;;;;;;21.37;13.73;;;11.00;99.90;;;;;;5014276;28;20224;-32
2023/04/07 06:30:46;;;;;;;20.90;13.20;;;11.00;99.90;;;;;;5046785;28;20258;-32
2023/04/07 06:33:13;;;;;;;23.70;14.17;;;11.10;99.90;;;;;;5045284;28;20200;-33
2023/04/07 06:35:43;;;;;;;20.17;14.13;;;11.10;99.90;;;;;;5046489;28;20232;-33
2023/04/07 06:38:15;;;;;;;17.47;12.63;;;11.20;99.90;;;;;;5045160;28;20691;-33
2023/04/07 06:40:42;;;;;;;20.43;13.37;;;11.20;99.90;;;;;;5046564;28;20254;-33
2023/04/07 06:43:09;;;;;;;20.10;13.40;;;11.30;99.90;;;;;;5046386;28;20238;-32
2023/04/07 06:45:36;;;;;;;23.60;15.33;;;11.30;99.90;;;;;;5046134;28;20208;-33
2023/04/07 06:48:06;;;;;;;20.03;13.87;;;11.40;99.90;;;;;;5046484;28;20208;-33
2023/04/07 06:50:38;;;;;;;19.27;12.80;;;11.40;99.90;;;;;;5045239;28;20546;-33
2023/04/07 06:53:10;;;;;;;21.90;14.50;;;11.40;99.90;;;;;;5044892;28;20577;-33
2023/04/07 06:55:39;;;;;;;18.80;14.13;;;11.50;99.90;;;;;;5046048;28;20297;-33
2023/04/07 06:58:06;;;;;;;20.27;14.20;;;11.50;99.90;;;;;;5044895;28;20200;-33
2023/04/07 07:00:34;;;;;;;21.70;13.30;;;11.50;99.90;;;;;;5046459;28;20200;-33
2023/04/07 07:03:06;;;;;;;19.73;13.43;;;11.50;99.90;;;;;;5045865;28;20275;-33
2023/04/07 07:05:38;;;;;;;23.07;15.00;;;11.60;99.90;;;;;;5046374;28;20714;-32
2023/04/07 07:08:10;;;;;;;22.27;14.00;;;11.60;99.90;;;;;;5045750;28;20220;-33
2023/04/07 07:10:40;;;;;;;19.37;14.13;;;11.70;99.90;;;;;;5028920;28;20195;-33
2023/04/07 07:13:07;;;;;;;21.27;13.67;;;11.70;99.90;;;;;;5046024;28;20258;-33
2023/04/07 07:15:36;;;;;;;17.33;12.73;;;11.70;99.90;;;;;;5045878;28;20239;-33
2023/04/07 07:18:05;;;;;;;25.40;14.43;;;11.80;99.90;;;;;;5028297;28;20374;-34
2023/04/07 07:20:38;;;;;;;23.07;14.03;;;11.80;99.90;;;;;;5045260;28;20197;-34
2023/04/07 07:23:07;;;;;;;21.00;13.00;;;11.80;99.90;;;;;;5045727;28;20281;-34
2023/04/07 07:25:35;;;;;;;21.37;13.83;;;11.80;99.90;;;;;;5027653;28;20208;-34
2023/04/07 07:28:05;;;;;;;22.87;13.50;;;11.80;99.90;;;;;;5045746;28;20739;-33
2023/04/07 07:30:34;;;;;;;19.03;13.13;;;11.80;99.90;;;;;;5045361;28;20219;-33
2023/04/07 07:33:03;;;;;;;24.17;16.37;;;11.90;99.90;;;;;;5043855;28;20687;-32
2023/04/07 07:35:33;;;;;;;20.57;15.33;;;11.90;99.90;;;;;;5045187;28;20227;-32
2023/04/07 07:38:05;;;;;;;19.63;15.67;;;12.00;99.90;;;;;;5044063;28;20196;-33
2023/04/07 07:40:35;;;;;;;24.67;15.80;;;12.00;99.90;;;;;;5044465;28;20231;-33
2023/04/07 07:43:07;;;;;;;24.27;16.67;;;12.00;99.90;;;;;;5045265;28;20224;-33
2023/04/07 07:45:34;;;;;;;25.57;16.13;;;12.00;99.90;;;;;;5028005;28;20235;-33
2023/04/07 07:48:01;;;;;;;20.60;15.90;;;12.00;99.90;;;;;;5045303;28;20251;-33
2023/04/07 07:50:29;;;;;;;21.27;15.13;;;12.00;99.90;;;;;;5045176;28;20224;-33
2023/04/07 07:52:56;;;;;;;22.37;16.03;;;12.00;99.90;;;;;;5045194;28;20215;-33
2023/04/07 07:55:30;;;;;;;23.13;15.13;;;12.10;99.90;;;;;;5043642;28;20294;-33
2023/04/07 07:57:57;;;;;;;22.07;16.50;;;12.10;99.90;;;;;;5043482;28;20260;-33
2023/04/07 08:00:24;;;;;;;22.67;16.37;;;12.20;99.90;;;;;;5043685;28;20278;-32
2023/04/07 08:02:52;;;;;;;20.83;16.10;;;12.20;99.90;;;;;;5044939;28;20679;-33
2023/04/07 08:05:19;;;;;;;21.20;15.53;;;12.20;99.90;;;;;;5043673;28;20240;-32
2023/04/07 08:07:52;;;;;;;24.50;15.77;;;12.20;99.90;;;;;;5045090;28;20223;-33
2023/04/07 08:10:25;;;;;;;22.20;15.20;;;12.30;99.90;;;;;;5044837;28;20220;-33
2023/04/07 08:12:54;;;;;;;21.60;15.50;;;12.30;99.90;;;;;;5043334;28;20197;-33
2023/04/07 08:15:24;;;;;;;17.57;14.53;;;12.40;99.90;;;;;;5043188;28;20725;-33
2023/04/07 08:17:51;;;;;;;19.87;14.97;;;12.40;99.90;;;;;;5044731;28;20258;-33
2023/04/07 08:20:25;;;;;;;20.47;14.47;;;12.50;99.90;;;;;;5047107;28;20211;-33
2023/04/07 08:22:52;;;;;;;20.23;15.03;;;12.50;99.90;;;;;;5047028;28;20212;-33
2023/04/07 08:25:22;;;;;;;14.77;12.27;;;12.40;99.90;;;;;;5046915;28;20201;-33
2023/04/07 08:27:49;;;;;;;16.27;12.67;;;12.50;99.90;;;;;;5046801;28;20192;-33
2023/04/07 08:30:17;;;;;;;18.23;13.40;;;12.50;99.90;;;;;;5046794;28;20250;-32
2023/04/07 08:32:44;;;;;;;13.80;11.57;;;12.50;99.90;;;;;;5046805;28;20212;-33
2023/04/07 08:35:11;;;;;;;15.53;11.07;;;12.50;99.90;;;;;;5048140;28;20227;-33
2023/04/07 08:37:39;;;;;;;14.23;9.30;;;12.50;99.90;;;;;;5048023;28;20196;-33
2023/04/07 08:40:10;;;;;;;13.40;9.90;;;12.50;99.90;;;;;;5030714;28;20215;-32
2023/04/07 08:42:48;;;;;;;12.87;10.63;;;12.60;99.90;;;;;;5048039;28;20717;-34
2023/04/07 08:45:17;;;;;;;15.77;10.80;;;12.60;99.90;;;;;;5047983;28;20888;-32
2023/04/07 08:47:57;;;;;;;14.37;10.97;;;12.60;99.90;;;;;;5046373;28;20713;-32
2023/04/07 08:50:27;;;;;;;13.33;11.13;;;12.60;99.90;;;;;;5048119;28;20618;-33
2023/04/07 08:53:02;;;;;;;13.67;12.27;;;12.60;99.90;;;;;;5048116;28;20264;-33
2023/04/07 08:55:30;;;;;;;13.40;12.00;;;12.60;99.90;;;;;;5046375;28;20271;-33
2023/04/07 08:58:00;;;;;;;11.83;10.63;;;12.60;99.90;;;;;;5046908;28;20201;-33
2023/04/07 09:00:31;;;;;;;13.90;11.60;;;12.60;99.90;;;;;;5047016;28;20201;-33
2023/04/07 09:03:02;;;;;;;11.37;10.20;;;12.60;99.90;;;;;;5048204;28;20564;-32
2023/04/07 09:05:32;;;;;;;12.37;9.33;;;12.70;99.90;;;;;;5047095;28;20200;-33
2023/04/07 09:08:03;;;;;;;9.57;8.13;;;12.80;99.90;;;;;;5030036;28;20315;-33
2023/04/07 09:10:38;;;;;;;10.87;9.47;;;12.80;99.90;;;;;;5048710;28;20303;-32
2023/04/07 09:13:05;;;;;;;13.27;9.60;;;12.80;99.90;;;;;;5048198;28;20260;-33
2023/04/07 09:15:33;;;;;;;13.07;7.93;;;12.80;99.90;;;;;;5046655;28;20306;-32
2023/04/07 09:18:03;;;;;;;11.50;7.43;;;12.80;99.90;;;;;;5048214;28;20524;-32
2023/04/07 09:20:58;;;;;;;7.00;6.27;;;12.90;99.90;;;;;;5046187;28;20199;-33
2023/04/07 09:23:33;;;;;;;7.20;6.00;;;13.00;99.90;;;;;;5047819;28;20204;-33
2023/04/07 09:26:21;;;;;;;6.87;5.37;;;13.00;99.90;;;;;;5046478;28;20223;-32
2023/04/07 09:28:58;;;;;;;5.33;4.83;;;13.00;99.90;;;;;;5046632;28;20216;-33
2023/04/07 09:31:50;;;;;;;4.50;4.10;;;13.00;99.90;;;;;;5046119;28;20268;-33
2023/04/07 09:34:28;;;;;;;5.40;4.30;;;13.10;99.90;;;;;;5047625;28;20212;-33
2023/04/07 09:37:04;;;;;;;6.47;4.60;;;13.10;99.90;;;;;;5047802;28;20310;-33
2023/04/07 09:39:34;;;;;;;9.27;4.50;;;13.00;99.90;;;;;;5046039;28;20200;-33
2023/04/07 09:42:06;;;;;;;7.00;3.73;;;13.00;99.90;;;;;;5046081;28;20220;-33
2023/04/07 09:44:42;;;;;;;4.57;3.50;;;13.00;99.90;;;;;;5046444;28;20899;-33
2023/04/07 09:47:10;;;;;;;6.13;3.83;;;13.00;99.90;;;;;;5045924;28;20199;-33
2023/04/07 09:49:54;;;;;;;6.80;3.90;;;13.00;99.90;;;;;;5047443;28;20659;-33
2023/04/07 09:52:47;;;;;;;5.50;3.73;;;13.00;99.90;;;;;;5045689;28;20236;-33
2023/04/07 09:55:16;;;;;;;4.30;3.80;;;13.10;99.90;;;;;;5043173;28;20277;-32
2023/04/07 09:57:44;;;;;;;6.50;3.40;;;13.10;99.90;;;;;;5047064;28;20239;-33
2023/04/07 10:00:11;;;;;;;6.33;3.57;;;13.10;99.90;;;;;;5047139;28;20201;-32
2023/04/07 10:02:41;;;;;;;6.07;3.40;;;13.20;99.90;;;;;;5045748;28;20200;-33
2023/04/07 10:05:12;;;;;;;4.33;3.10;;;13.20;99.90;;;;;;5029324;28;20193;-32
2023/04/07 10:07:40;;;;;;;3.30;2.77;;;13.20;99.90;;;;;;5045615;28;20262;-34
2023/04/07 10:10:11;;;;;;;4.57;3.10;;;13.30;99.90;;;;;;5045664;28;20203;-32
2023/04/07 10:12:42;;;;;;;4.87;3.97;;;13.30;99.90;;;;;;5047400;28;20196;-32
2023/04/07 10:15:14;;;;;;;5.53;3.43;;;13.40;99.90;;;;;;5046786;28;20208;-32
2023/04/07 10:17:48;;;;;;;4.87;3.57;;;13.40;99.90;;;;;;5044981;28;20308;-32
2023/04/07 10:20:21;;;;;;;4.17;3.60;;;13.50;99.90;;;;;;5046512;28;20208;-33
2023/04/07 10:22:54;;;;;;;7.73;4.07;;;13.60;99.90;;;;;;5045013;28;20597;-32
2023/04/07 10:25:27;;;;;;;3.67;3.07;;;13.60;99.90;;;;;;5046462;28;20222;-33
2023/04/07 10:28:08;;;;;;;4.37;3.13;;;13.60;99.90;;;;;;5046349;28;20711;-32
2023/04/07 10:30:35;;;;;;;9.73;3.23;;;13.70;99.90;;;;;;5046410;28;20234;-33
2023/04/07 10:33:03;;;;;;;5.23;2.97;;;13.70;99.90;;;;;;5046351;28;20208;-32
2023/04/07 10:36:07;;;;;;;7.10;3.17;;;13.70;99.90;;;;;;5046772;28;20463;-33
2023/04/07 10:38:37;;;;;;;3.97;2.43;;;13.70;99.90;;;;;;5045280;28;20337;-32
2023/04/07 10:41:33;;;;;;;8.60;2.93;;;13.70;99.90;;;;;;5045726;28;20216;-32
2023/04/07 10:44:03;;;;;;;7.63;3.47;;;13.60;99.90;;;;;;5046436;28;20327;-32
2023/04/07 10:46:46;;;;;;;6.87;3.50;;;13.60;99.90;;;;;;5046679;28;20635;-33
2023/04/07 10:49:17;;;;;;;5.80;3.07;;;13.60;99.90;;;;;;5046611;28;20207;-33
2023/04/07 10:52:10;;;;;;;4.37;2.73;;;13.50;99.90;;;;;;5046033;28;20539;-32
2023/04/07 10:54:41;;;;;;;4.57;2.60;;;13.50;99.90;;;;;;5044422;28;20261;-33
2023/04/07 10:57:12;;;;;;;5.43;3.17;;;13.50;99.90;;;;;;5045850;28;20603;-32
2023/04/07 11:00:04;;;;;;;5.47;2.50;;;13.40;99.90;;;;;;5044228;28;20204;-32
2023/04/07 11:02:32;;;;;;;4.17;2.70;;;13.50;99.90;;;;;;5045524;28;20204;-33
2023/04/07 11:05:02;;;;;;;8.10;3.17;;;13.50;99.90;;;;;;5045434;28;20200;-33
2023/04/07 11:07:54;;;;;;;6.37;3.20;;;13.50;99.90;;;;;;5027850;28;20212;-35
2023/04/07 11:10:26;;;;;;;6.03;3.50;;;13.40;99.90;;;;;;5044609;28;20203;-32
2023/04/07 11:13:09;;;;;;;5.20;2.67;;;13.30;99.90;;;;;;5027978;28;20191;-32
2023/04/07 11:15:38;;;;;;;3.37;2.27;;;13.30;99.90;;;;;;5045523;28;20226;-33
2023/04/07 11:18:13;;;;;;;6.17;2.50;;;13.30;99.90;;;;;;5027672;28;20648;-32
2023/04/07 11:20:42;;;;;;;5.90;2.00;;;13.30;99.90;;;;;;5045505;28;20196;-33
2023/04/07 11:23:15;;;;;;;6.53;2.30;;;13.30;99.90;;;;;;5045128;28;20247;-34
2023/04/07 11:25:47;;;;;;;8.77;2.23;;;13.30;99.90;;;;;;5044010;28;20192;-33
2023/04/07 11:28:15;;;;;;;9.40;2.23;;;13.30;99.90;;;;;;5043519;28;20714;-33
2023/04/07 11:30:52;;;;;;;4.83;2.07;;;13.30;99.90;;;;;;5045301;28;20198;-33
2023/04/07 11:33:26;;;;;;;7.90;2.43;;;13.30;99.90;;;;;;5044004;28;20315;-33
2023/04/07 11:35:58;;;;;;;5.10;1.73;;;13.40;99.90;;;;;;5045367;28;20200;-33
2023/04/07 11:38:36;;;;;;;10.43;2.47;;;13.40;99.90;;;;;;5043831;28;20224;-33
2023/04/07 11:41:14;;;;;;;6.97;2.10;;;13.50;99.90;;;;;;5043627;28;20678;-33
2023/04/07 11:43:47;;;;;;;10.77;2.37;;;13.60;99.90;;;;;;5045669;28;20219;-33
2023/04/07 11:46:18;;;;;;;6.20;2.33;;;13.60;99.90;;;;;;5045939;28;20215;-34
2023/04/07 11:48:48;;;;;;;6.50;2.27;;;13.60;99.90;;;;;;5044060;28;20670;-33
2023/04/07 11:51:22;;;;;;;3.63;1.53;;;13.60;99.90;;;;;;5045689;28;20234;-33
2023/04/07 11:53:58;;;;;;;6.53;1.80;;;13.50;99.90;;;;;;5047244;28;20226;-33
2023/04/07 11:56:26;;;;;;;7.17;2.07;;;13.50;99.90;;;;;;5031793;28;20658;-33
2023/04/07 11:59:01;;;;;;;6.57;1.83;;;13.50;99.90;;;;;;5049574;28;20254;-33
2023/04/07 12:01:43;;;;;;;5.93;1.93;;;13.50;99.90;;;;;;5047488;28;20215;-33
2023/04/07 12:04:17;;;;;;;5.37;1.50;;;13.50;99.90;;;;;;5048830;28;20208;-33
2023/04/07 12:06:47;;;;;;;6.50;1.70;;;13.40;99.90;;;;;;5048810;28;20290;-33
2023/04/07 12:09:47;;;;;;;5.67;1.50;;;13.50;99.90;;;;;;5031362;28;20223;-32
2023/04/07 12:12:28;;;;;;;6.27;1.60;;;13.40;99.90;;;;;;5030023;28;20699;-32
2023/04/07 12:14:55;;;;;;;2.90;1.23;;;13.40;99.90;;;;;;5048541;28;20261;-32
2023/04/07 12:17:26;;;;;;;7.97;2.20;;;13.40;99.90;;;;;;5048872;28;20251;-33
2023/04/07 12:19:57;;;;;;;6.63;2.40;;;13.50;99.90;;;;;;5047033;28;20623;-32
2023/04/07 12:22:24;;;;;;;8.40;2.60;;;13.50;99.90;;;;;;5048349;28;20196;-33
2023/04/07 12:24:51;;;;;;;7.60;2.93;;;13.50;99.90;;;;;;5030492;28;20618;-33
2023/04/07 12:27:23;;;;;;;5.70;2.67;;;13.50;99.90;;;;;;5048571;28;20697;-32
2023/04/07 12:30:08;;;;;;;5.13;2.50;;;13.40;99.90;;;;;;5048616;28;20678;-32
2023/04/07 12:32:38;;;;;;;8.83;3.23;;;13.40;99.90;;;;;;5046890;28;20277;-33
2023/04/07 12:35:05;;;;;;;8.67;3.50;;;13.30;99.90;;;;;;5048212;28;20212;-33
2023/04/07 12:37:32;;;;;;;8.00;3.00;;;13.20;99.90;;;;;;5048302;28;20242;-32
2023/04/07 12:40:00;;;;;;;8.10;2.80;;;13.20;99.90;;;;;;5046693;28;20224;-33
2023/04/07 12:42:27;;;;;;;9.37;3.17;;;13.20;99.90;;;;;;5046538;28;20192;-33
2023/04/07 12:44:55;;;;;;;7.53;2.83;;;13.10;99.90;;;;;;5030089;28;20266;-33
2023/04/07 12:47:25;;;;;;;9.00;2.93;;;13.10;99.90;;;;;;5046758;28;20295;-33
2023/04/07 12:49:52;;;;;;;7.67;2.93;;;13.10;99.90;;;;;;5047707;28;20293;-33
2023/04/07 12:52:19;;;;;;;6.90;2.60;;;13.10;99.90;;;;;;5047974;28;20690;-33
2023/04/07 12:54:46;;;;;;;9.00;3.13;;;13.10;99.90;;;;;;5013819;28;20602;-33